sensor_id;sensor_type;location;lat;lon;timestamp;pressure;altitude;pressure_sealevel;temperature;humidity
76858;BME280;65830;0.000;0.000;2023-06-26T00:02:09;99249.53;;;23.13;59.74
76858;BME280;65830;0.000;0.000;2023-06-26T00:04:35;99249.09;;;23.16;60.00
76858;BME280;65830;0.000;0.000;2023-06-26T00:07:03;99246.72;;;23.08;60.03
76858;BME280;65830;0.000;0.000;2023-06-26T00:09:29;99251.06;;;23.09;60.22
76858;BME280;65830;0.000;0.000;2023-06-26T00:11:54;99235.53;;;23.04;60.27
76858;BME280;65830;0.000;0.000;2023-06-26T00:14:20;99243.41;;;23.06;60.56
76858;BME280;65830;0.000;0.000;2023-06-26T00:16:46;99246.13;;;23.06;60.40
76858;BME280;65830;0.000;0.000;2023-06-26T00:19:12;99244.47;;;23.05;60.23
76858;BME280;65830;0.000;0.000;2023-06-26T00:21:37;99250.09;;;23.03;60.58
76858;BME280;65830;0.000;0.000;2023-06-26T00:24:02;99250.94;;;23.04;60.56
76858;BME280;65830;0.000;0.000;2023-06-26T00:26:28;99252.44;;;22.99;60.64
76858;BME280;65830;0.000;0.000;2023-06-26T00:28:53;99261.28;;;23.07;60.44
76858;BME280;65830;0.000;0.000;2023-06-26T00:31:19;99258.81;;;23.05;60.98
76858;BME280;65830;0.000;0.000;2023-06-26T00:33:45;99265.06;;;23.06;60.87
76858;BME280;65830;0.000;0.000;2023-06-26T00:36:10;99261.13;;;23.02;60.83
76858;BME280;65830;0.000;0.000;2023-06-26T00:38:36;99261.59;;;22.98;60.97
76858;BME280;65830;0.000;0.000;2023-06-26T00:41:01;99253.56;;;22.92;61.44
76858;BME280;65830;0.000;0.000;2023-06-26T00:43:28;99247.94;;;22.93;61.25
76858;BME280;65830;0.000;0.000;2023-06-26T00:45:54;99252.59;;;22.86;61.52
76858;BME280;65830;0.000;0.000;2023-06-26T00:48:20;99255.53;;;22.85;61.76
76858;BME280;65830;0.000;0.000;2023-06-26T00:50:46;99255.09;;;22.88;61.73
76858;BME280;65830;0.000;0.000;2023-06-26T00:53:12;99251.75;;;22.74;62.21
76858;BME280;65830;0.000;0.000;2023-06-26T00:55:37;99252.72;;;22.61;62.64
76858;BME280;65830;0.000;0.000;2023-06-26T00:58:03;99243.41;;;22.57;62.79
76858;BME280;65830;0.000;0.000;2023-06-26T01:00:28;99253.63;;;22.55;63.02
76858;BME280;65830;0.000;0.000;2023-06-26T01:02:56;99239.72;;;22.51;63.21
76858;BME280;65830;0.000;0.000;2023-06-26T01:05:26;99248.31;;;22.48;63.22
76858;BME280;65830;0.000;0.000;2023-06-26T01:07:52;99252.06;;;22.47;63.47
76858;BME280;65830;0.000;0.000;2023-06-26T01:10:18;99239.38;;;22.48;63.40
76858;BME280;65830;0.000;0.000;2023-06-26T01:12:44;99245.44;;;22.43;63.63
76858;BME280;65830;0.000;0.000;2023-06-26T01:15:10;99235.09;;;22.40;63.71
76858;BME280;65830;0.000;0.000;2023-06-26T01:17:36;99230.16;;;22.37;63.87
76858;BME280;65830;0.000;0.000;2023-06-26T01:20:03;99229.53;;;22.35;64.11
76858;BME280;65830;0.000;0.000;2023-06-26T01:27:54;99229.97;;;22.32;64.26
76858;BME280;65830;0.000;0.000;2023-06-26T01:30:22;99233.91;;;22.36;64.30
76858;BME280;65830;0.000;0.000;2023-06-26T01:32:48;99236.63;;;22.36;64.33
76858;BME280;65830;0.000;0.000;2023-06-26T01:35:14;99229.09;;;22.38;64.11
76858;BME280;65830;0.000;0.000;2023-06-26T01:37:40;99224.13;;;22.35;63.99
76858;BME280;65830;0.000;0.000;2023-06-26T01:40:06;99223.97;;;22.30;64.26
76858;BME280;65830;0.000;0.000;2023-06-26T01:42:32;99222.94;;;22.31;64.06
76858;BME280;65830;0.000;0.000;2023-06-26T01:44:58;99216.34;;;22.27;64.10
76858;BME280;65830;0.000;0.000;2023-06-26T01:47:27;99208.63;;;22.30;64.06
76858;BME280;65830;0.000;0.000;2023-06-26T01:52:29;99216.63;;;22.37;63.78
76858;BME280;65830;0.000;0.000;2023-06-26T01:57:45;99218.72;;;22.35;64.07
76858;BME280;65830;0.000;0.000;2023-06-26T02:00:14;99228.03;;;22.39;63.83
76858;BME280;65830;0.000;0.000;2023-06-26T02:02:43;99219.13;;;22.38;63.71
76858;BME280;65830;0.000;0.000;2023-06-26T02:05:12;99214.41;;;22.34;63.66
76858;BME280;65830;0.000;0.000;2023-06-26T02:07:38;99222.72;;;22.32;64.16
76858;BME280;65830;0.000;0.000;2023-06-26T02:10:03;99221.44;;;22.35;64.01
76858;BME280;65830;0.000;0.000;2023-06-26T02:12:29;99224.53;;;22.38;63.83
76858;BME280;65830;0.000;0.000;2023-06-26T02:14:55;99221.44;;;22.35;63.99
76858;BME280;65830;0.000;0.000;2023-06-26T02:17:23;99226.84;;;22.35;63.95
76858;BME280;65830;0.000;0.000;2023-06-26T02:19:48;99220.41;;;22.36;64.02
76858;BME280;65830;0.000;0.000;2023-06-26T02:22:14;99228.41;;;22.43;63.71
76858;BME280;65830;0.000;0.000;2023-06-26T02:24:40;99223.09;;;22.36;64.14
76858;BME280;65830;0.000;0.000;2023-06-26T02:27:06;99231.22;;;22.36;64.01
76858;BME280;65830;0.000;0.000;2023-06-26T02:29:31;99221.00;;;22.38;63.88
76858;BME280;65830;0.000;0.000;2023-06-26T02:31:57;99225.34;;;22.39;64.18
76858;BME280;65830;0.000;0.000;2023-06-26T02:34:22;99219.34;;;22.37;64.17
76858;BME280;65830;0.000;0.000;2023-06-26T02:36:47;99212.72;;;22.33;64.28
76858;BME280;65830;0.000;0.000;2023-06-26T02:39:13;99212.72;;;22.33;64.41
76858;BME280;65830;0.000;0.000;2023-06-26T02:41:40;99216.03;;;22.35;64.24
76858;BME280;65830;0.000;0.000;2023-06-26T02:44:05;99219.81;;;22.34;64.36
76858;BME280;65830;0.000;0.000;2023-06-26T02:46:32;99219.81;;;22.34;64.27
76858;BME280;65830;0.000;0.000;2023-06-26T02:48:58;99226.69;;;22.30;64.44
76858;BME280;65830;0.000;0.000;2023-06-26T02:51:25;99209.44;;;22.31;64.37
76858;BME280;65830;0.000;0.000;2023-06-26T02:53:52;99220.41;;;22.36;64.12
76858;BME280;65830;0.000;0.000;2023-06-26T02:56:18;99222.41;;;22.40;63.94
76858;BME280;65830;0.000;0.000;2023-06-26T02:58:43;99226.03;;;22.34;64.28
76858;BME280;65830;0.000;0.000;2023-06-26T03:01:09;99217.31;;;22.32;64.21
76858;BME280;65830;0.000;0.000;2023-06-26T03:03:34;99218.13;;;22.33;64.09
76858;BME280;65830;0.000;0.000;2023-06-26T03:06:08;99234.34;;;22.33;64.19
76858;BME280;65830;0.000;0.000;2023-06-26T03:08:36;99226.84;;;22.35;64.00
76858;BME280;65830;0.000;0.000;2023-06-26T03:11:02;99226.75;;;22.41;63.60
76858;BME280;65830;0.000;0.000;2023-06-26T03:13:27;99233.00;;;22.42;63.46
76858;BME280;65830;0.000;0.000;2023-06-26T03:15:53;99231.94;;;22.43;63.50
76858;BME280;65830;0.000;0.000;2023-06-26T03:18:18;99234.41;;;22.45;63.37
76858;BME280;65830;0.000;0.000;2023-06-26T03:20:44;99233.50;;;22.51;63.23
76858;BME280;65830;0.000;0.000;2023-06-26T03:23:09;99233.72;;;22.49;63.09
76858;BME280;65830;0.000;0.000;2023-06-26T03:25:35;99240.81;;;22.50;63.20
76858;BME280;65830;0.000;0.000;2023-06-26T03:28:30;99230.81;;;22.51;63.28
76858;BME280;65830;0.000;0.000;2023-06-26T03:30:56;99244.31;;;22.51;63.08
76858;BME280;65830;0.000;0.000;2023-06-26T03:33:22;99240.22;;;22.48;63.12
76858;BME280;65830;0.000;0.000;2023-06-26T03:35:48;99250.69;;;22.56;63.09
76858;BME280;65830;0.000;0.000;2023-06-26T03:38:14;99249.50;;;22.52;63.47
76858;BME280;65830;0.000;0.000;2023-06-26T03:40:41;99244.53;;;22.49;63.27
76858;BME280;65830;0.000;0.000;2023-06-26T03:43:07;99241.25;;;22.47;63.69
76858;BME280;65830;0.000;0.000;2023-06-26T03:45:43;99245.13;;;22.51;63.25
76858;BME280;65830;0.000;0.000;2023-06-26T03:48:09;99240.34;;;22.53;63.07
76858;BME280;65830;0.000;0.000;2023-06-26T03:50:35;99244.81;;;22.59;62.97
76858;BME280;65830;0.000;0.000;2023-06-26T03:53:01;99237.34;;;22.62;62.86
76858;BME280;65830;0.000;0.000;2023-06-26T03:55:27;99244.22;;;22.57;63.08
76858;BME280;65830;0.000;0.000;2023-06-26T03:57:52;99232.16;;;22.60;62.83
76858;BME280;65830;0.000;0.000;2023-06-26T04:00:18;99245.91;;;22.58;62.85
76858;BME280;65830;0.000;0.000;2023-06-26T04:02:43;99236.28;;;22.63;63.04
76858;BME280;65830;0.000;0.000;2023-06-26T04:05:10;99241.84;;;22.68;62.92
76858;BME280;65830;0.000;0.000;2023-06-26T04:07:37;99232.22;;;22.72;63.03
76858;BME280;65830;0.000;0.000;2023-06-26T04:10:04;99236.09;;;22.76;62.68
76858;BME280;65830;0.000;0.000;2023-06-26T04:12:32;99236.22;;;22.81;62.48
76858;BME280;65830;0.000;0.000;2023-06-26T04:14:57;99236.22;;;22.81;62.36
76858;BME280;65830;0.000;0.000;2023-06-26T04:17:23;99233.91;;;22.85;62.36
76858;BME280;65830;0.000;0.000;2023-06-26T04:19:48;99233.66;;;22.86;62.04
76858;BME280;65830;0.000;0.000;2023-06-26T04:22:14;99232.53;;;22.94;62.10
76858;BME280;65830;0.000;0.000;2023-06-26T04:24:39;99229.53;;;23.02;61.77
76858;BME280;65830;0.000;0.000;2023-06-26T04:27:05;99235.91;;;23.08;61.36
76858;BME280;65830;0.000;0.000;2023-06-26T04:29:31;99226.97;;;23.07;61.04
76858;BME280;65830;0.000;0.000;2023-06-26T04:31:56;99231.44;;;23.13;61.04
76858;BME280;65830;0.000;0.000;2023-06-26T04:34:25;99235.06;;;23.19;60.57
76858;BME280;65830;0.000;0.000;2023-06-26T04:36:50;99238.16;;;23.23;60.62
76858;BME280;65830;0.000;0.000;2023-06-26T04:39:16;99238.84;;;23.18;61.01
76858;BME280;65830;0.000;0.000;2023-06-26T04:41:42;99240.03;;;23.22;60.81
76858;BME280;65830;0.000;0.000;2023-06-26T04:44:08;99246.53;;;23.21;60.66
76858;BME280;65830;0.000;0.000;2023-06-26T04:46:33;99245.91;;;23.19;61.00
76858;BME280;65830;0.000;0.000;2023-06-26T04:48:59;99239.09;;;23.16;61.22
76858;BME280;65830;0.000;0.000;2023-06-26T04:51:24;99246.97;;;23.18;60.87
76858;BME280;65830;0.000;0.000;2023-06-26T04:53:52;99253.44;;;23.17;60.55
76858;BME280;65830;0.000;0.000;2023-06-26T04:56:17;99250.16;;;23.27;60.54
76858;BME280;65830;0.000;0.000;2023-06-26T04:58:43;99249.75;;;23.42;59.99
76858;BME280;65830;0.000;0.000;2023-06-26T05:01:08;99252.81;;;23.45;60.02
76858;BME280;65830;0.000;0.000;2023-06-26T05:03:35;99254.81;;;23.50;59.86
76858;BME280;65830;0.000;0.000;2023-06-26T05:06:02;99263.19;;;23.60;59.26
76858;BME280;65830;0.000;0.000;2023-06-26T05:08:27;99271.44;;;23.65;58.80
76858;BME280;65830;0.000;0.000;2023-06-26T05:10:52;99270.38;;;23.66;58.47
76858;BME280;65830;0.000;0.000;2023-06-26T05:13:25;99276.84;;;23.65;58.55
76858;BME280;65830;0.000;0.000;2023-06-26T05:15:51;99287.56;;;23.60;58.68
76858;BME280;65830;0.000;0.000;2023-06-26T05:18:17;99293.09;;;23.65;58.44
76858;BME280;65830;0.000;0.000;2023-06-26T05:20:42;99283.44;;;23.69;57.96
76858;BME280;65830;0.000;0.000;2023-06-26T05:23:08;99285.56;;;23.67;58.12
76858;BME280;65830;0.000;0.000;2023-06-26T05:25:35;99292.00;;;23.54;58.46
76858;BME280;65830;0.000;0.000;2023-06-26T05:28:01;99284.84;;;23.60;58.75
76858;BME280;65830;0.000;0.000;2023-06-26T05:30:27;99288.72;;;23.64;57.95
76858;BME280;65830;0.000;0.000;2023-06-26T05:32:53;99291.25;;;23.77;58.16
76858;BME280;65830;0.000;0.000;2023-06-26T05:35:22;99292.28;;;23.76;57.47
76858;BME280;65830;0.000;0.000;2023-06-26T05:37:48;99297.16;;;23.86;57.53
76858;BME280;65830;0.000;0.000;2023-06-26T05:40:15;99299.03;;;23.86;56.80
76858;BME280;65830;0.000;0.000;2023-06-26T05:42:41;99298.09;;;23.80;56.48
76858;BME280;65830;0.000;0.000;2023-06-26T05:45:06;99287.59;;;23.84;56.85
76858;BME280;65830;0.000;0.000;2023-06-26T05:47:32;99305.28;;;23.98;56.58
76858;BME280;65830;0.000;0.000;2023-06-26T05:49:57;99292.22;;;23.95;56.26
76858;BME280;65830;0.000;0.000;2023-06-26T05:52:23;99288.66;;;24.06;55.59
76858;BME280;65830;0.000;0.000;2023-06-26T05:54:48;99292.31;;;24.12;55.32
76858;BME280;65830;0.000;0.000;2023-06-26T05:57:14;99283.59;;;24.22;55.22
76858;BME280;65830;0.000;0.000;2023-06-26T05:59:40;99290.19;;;24.26;54.96
76858;BME280;65830;0.000;0.000;2023-06-26T06:02:07;99284.97;;;24.36;54.56
76858;BME280;65830;0.000;0.000;2023-06-26T06:04:32;99293.22;;;24.41;54.92
76858;BME280;65830;0.000;0.000;2023-06-26T06:06:57;99299.16;;;24.38;54.35
76858;BME280;65830;0.000;0.000;2023-06-26T06:09:23;99288.88;;;24.40;54.41
76858;BME280;65830;0.000;0.000;2023-06-26T06:11:48;99292.28;;;24.47;54.90
76858;BME280;65830;0.000;0.000;2023-06-26T06:14:14;99300.41;;;24.47;54.83
76858;BME280;65830;0.000;0.000;2023-06-26T06:16:39;99301.38;;;24.17;55.31
76858;BME280;65830;0.000;0.000;2023-06-26T06:19:05;99299.84;;;24.22;55.27
76858;BME280;65830;0.000;0.000;2023-06-26T06:21:32;99311.19;;;24.18;55.50
76858;BME280;65830;0.000;0.000;2023-06-26T06:23:57;99299.41;;;24.25;55.13
76858;BME280;65830;0.000;0.000;2023-06-26T06:26:23;99302.78;;;24.32;55.08
76858;BME280;65830;0.000;0.000;2023-06-26T06:28:48;99295.72;;;24.31;54.85
76858;BME280;65830;0.000;0.000;2023-06-26T06:31:14;99298.44;;;24.31;55.16
76858;BME280;65830;0.000;0.000;2023-06-26T06:33:39;99293.97;;;24.25;55.12
76858;BME280;65830;0.000;0.000;2023-06-26T06:36:05;99296.31;;;24.21;55.22
76858;BME280;65830;0.000;0.000;2023-06-26T06:38:30;99301.97;;;24.19;54.61
76858;BME280;65830;0.000;0.000;2023-06-26T06:40:56;99298.81;;;24.23;54.83
76858;BME280;65830;0.000;0.000;2023-06-26T06:43:22;99296.19;;;24.16;54.56
76858;BME280;65830;0.000;0.000;2023-06-26T06:45:47;99297.63;;;24.18;55.15
76858;BME280;65830;0.000;0.000;2023-06-26T06:48:13;99296.31;;;24.33;54.96
76858;BME280;65830;0.000;0.000;2023-06-26T06:50:38;99303.88;;;24.31;54.46
76858;BME280;65830;0.000;0.000;2023-06-26T06:53:04;99294.91;;;24.30;53.67
76858;BME280;65830;0.000;0.000;2023-06-26T06:55:29;99299.75;;;24.40;54.10
76858;BME280;65830;0.000;0.000;2023-06-26T06:57:55;99296.88;;;24.47;53.68
76858;BME280;65830;0.000;0.000;2023-06-26T07:00:20;99303.63;;;24.56;53.59
76858;BME280;65830;0.000;0.000;2023-06-26T07:02:46;99300.28;;;24.66;53.24
76858;BME280;65830;0.000;0.000;2023-06-26T07:05:11;99300.16;;;24.72;52.38
76858;BME280;65830;0.000;0.000;2023-06-26T07:07:37;99296.13;;;24.75;52.18
76858;BME280;65830;0.000;0.000;2023-06-26T07:10:04;99296.44;;;24.90;52.44
76858;BME280;65830;0.000;0.000;2023-06-26T07:12:30;99297.25;;;24.91;51.81
76858;BME280;65830;0.000;0.000;2023-06-26T07:14:56;99291.19;;;25.01;51.66
76858;BME280;65830;0.000;0.000;2023-06-26T07:17:22;99289.25;;;25.13;51.72
76858;BME280;65830;0.000;0.000;2023-06-26T07:19:48;99289.13;;;25.20;51.44
76858;BME280;65830;0.000;0.000;2023-06-26T07:22:14;99278.31;;;25.08;51.29
76858;BME280;65830;0.000;0.000;2023-06-26T07:24:40;99278.06;;;25.09;51.35
76858;BME280;65830;0.000;0.000;2023-06-26T07:27:05;99275.78;;;25.18;51.01
76858;BME280;65830;0.000;0.000;2023-06-26T07:29:31;99284.31;;;25.22;51.08
76858;BME280;65830;0.000;0.000;2023-06-26T07:31:56;99279.91;;;25.21;50.52
76858;BME280;65830;0.000;0.000;2023-06-26T07:34:21;99284.75;;;25.18;50.61
76858;BME280;65830;0.000;0.000;2023-06-26T07:36:47;99282.28;;;25.17;50.21
76858;BME280;65830;0.000;0.000;2023-06-26T07:39:12;99284.97;;;25.17;49.12
76858;BME280;65830;0.000;0.000;2023-06-26T07:41:38;99291.22;;;25.29;49.45
76858;BME280;65830;0.000;0.000;2023-06-26T07:44:03;99289.16;;;25.36;50.16
76858;BME280;65830;0.000;0.000;2023-06-26T07:46:29;99281.53;;;25.50;49.76
76858;BME280;65830;0.000;0.000;2023-06-26T07:48:54;99279.97;;;25.71;49.40
76858;BME280;65830;0.000;0.000;2023-06-26T07:51:20;99274.13;;;25.96;48.93
76858;BME280;65830;0.000;0.000;2023-06-26T07:53:45;99278.47;;;26.14;49.55
76858;BME280;65830;0.000;0.000;2023-06-26T07:56:11;99280.38;;;26.36;48.42
76858;BME280;65830;0.000;0.000;2023-06-26T07:58:36;99287.94;;;26.51;47.96
76858;BME280;65830;0.000;0.000;2023-06-26T08:01:02;99288.50;;;26.31;47.16
76858;BME280;65830;0.000;0.000;2023-06-26T08:03:27;99289.31;;;26.31;47.58
76858;BME280;65830;0.000;0.000;2023-06-26T08:05:53;99287.97;;;26.34;47.51
76858;BME280;65830;0.000;0.000;2023-06-26T08:08:19;99289.50;;;26.25;47.58
76858;BME280;65830;0.000;0.000;2023-06-26T08:10:44;99291.50;;;26.12;47.39
76858;BME280;65830;0.000;0.000;2023-06-26T08:13:10;99289.59;;;26.13;47.00
76858;BME280;65830;0.000;0.000;2023-06-26T08:15:35;99295.72;;;26.03;46.69
76858;BME280;65830;0.000;0.000;2023-06-26T08:18:01;99290.84;;;26.05;46.54
76858;BME280;65830;0.000;0.000;2023-06-26T08:20:26;99290.91;;;26.10;46.78
76858;BME280;65830;0.000;0.000;2023-06-26T08:22:53;99290.59;;;26.07;47.00
76858;BME280;65830;0.000;0.000;2023-06-26T08:25:19;99303.34;;;26.06;48.89
76858;BME280;65830;0.000;0.000;2023-06-26T08:27:45;99318.66;;;25.79;54.33
76858;BME280;65830;0.000;0.000;2023-06-26T08:30:11;99311.06;;;25.30;57.31
76858;BME280;65830;0.000;0.000;2023-06-26T08:32:36;99316.38;;;25.25;59.10
76858;BME280;65830;0.000;0.000;2023-06-26T08:35:02;99309.22;;;24.78;58.34
76858;BME280;65830;0.000;0.000;2023-06-26T08:37:27;99309.75;;;24.51;58.93
76858;BME280;65830;0.000;0.000;2023-06-26T08:39:53;99301.63;;;24.51;59.25
76858;BME280;65830;0.000;0.000;2023-06-26T08:42:18;99299.94;;;24.62;59.78
76858;BME280;65830;0.000;0.000;2023-06-26T08:44:44;99290.34;;;24.71;59.95
76858;BME280;65830;0.000;0.000;2023-06-26T08:47:10;99286.28;;;24.97;62.69
76858;BME280;65830;0.000;0.000;2023-06-26T08:49:51;99275.22;;;25.16;62.50
76858;BME280;65830;0.000;0.000;2023-06-26T08:52:28;99279.31;;;25.18;62.78
76858;BME280;65830;0.000;0.000;2023-06-26T08:54:57;99277.81;;;25.11;64.38
76858;BME280;65830;0.000;0.000;2023-06-26T08:57:23;99276.75;;;25.12;64.70
76858;BME280;65830;0.000;0.000;2023-06-26T08:59:48;99279.69;;;25.22;63.44
76858;BME280;65830;0.000;0.000;2023-06-26T09:02:14;99281.44;;;25.28;64.78
76858;BME280;65830;0.000;0.000;2023-06-26T09:04:40;99279.91;;;25.49;64.44
76858;BME280;65830;0.000;0.000;2023-06-26T09:07:05;99281.44;;;25.62;60.98
76858;BME280;65830;0.000;0.000;2023-06-26T09:09:32;99275.19;;;25.79;61.17
76858;BME280;65830;0.000;0.000;2023-06-26T09:11:57;99272.00;;;25.99;61.07
76858;BME280;65830;0.000;0.000;2023-06-26T09:14:23;99285.13;;;26.24;59.11
76858;BME280;65830;0.000;0.000;2023-06-26T09:16:48;99278.75;;;26.35;56.06
76858;BME280;65830;0.000;0.000;2023-06-26T09:19:14;99272.63;;;26.45;55.63
76858;BME280;65830;0.000;0.000;2023-06-26T09:21:41;99273.56;;;26.55;54.53
76858;BME280;65830;0.000;0.000;2023-06-26T09:24:07;99267.44;;;26.65;51.86
76858;BME280;65830;0.000;0.000;2023-06-26T09:26:34;99261.84;;;26.72;50.75
76858;BME280;65830;0.000;0.000;2023-06-26T09:29:00;99266.19;;;26.73;50.60
76858;BME280;65830;0.000;0.000;2023-06-26T09:31:25;99279.03;;;26.78;53.77
76858;BME280;65830;0.000;0.000;2023-06-26T09:33:58;99280.34;;;26.14;56.63
76858;BME280;65830;0.000;0.000;2023-06-26T09:36:26;99284.09;;;25.74;58.14
76858;BME280;65830;0.000;0.000;2023-06-26T09:38:52;99279.72;;;25.56;57.80
76858;BME280;65830;0.000;0.000;2023-06-26T09:41:18;99283.44;;;25.50;57.10
76858;BME280;65830;0.000;0.000;2023-06-26T09:43:46;99285.63;;;25.53;58.16
76858;BME280;65830;0.000;0.000;2023-06-26T09:46:16;99286.25;;;25.55;61.85
76858;BME280;65830;0.000;0.000;2023-06-26T09:48:42;99297.34;;;25.53;58.50
76858;BME280;65830;0.000;0.000;2023-06-26T09:51:07;99294.59;;;25.36;60.13
76858;BME280;65830;0.000;0.000;2023-06-26T09:53:35;99298.47;;;25.24;58.82
76858;BME280;65830;0.000;0.000;2023-06-26T09:56:04;99297.94;;;24.98;58.31
76858;BME280;65830;0.000;0.000;2023-06-26T09:58:30;99299.81;;;24.69;58.12
76858;BME280;65830;0.000;0.000;2023-06-26T10:00:56;99300.66;;;24.57;58.63
76858;BME280;65830;0.000;0.000;2023-06-26T10:03:22;99298.50;;;24.48;58.99
76858;BME280;65830;0.000;0.000;2023-06-26T10:05:47;99296.78;;;24.53;59.73
76858;BME280;65830;0.000;0.000;2023-06-26T10:08:13;99288.41;;;24.55;60.37
76858;BME280;65830;0.000;0.000;2023-06-26T10:10:39;99290.38;;;24.60;60.96
76858;BME280;65830;0.000;0.000;2023-06-26T10:13:11;99277.19;;;24.63;59.70
76858;BME280;65830;0.000;0.000;2023-06-26T10:15:40;99262.84;;;24.80;60.07
76858;BME280;65830;0.000;0.000;2023-06-26T10:18:10;99262.66;;;24.98;63.85
76858;BME280;65830;0.000;0.000;2023-06-26T10:20:36;99264.63;;;25.03;60.95
76858;BME280;65830;0.000;0.000;2023-06-26T10:23:02;99270.34;;;25.18;63.51
76858;BME280;65830;0.000;0.000;2023-06-26T10:25:30;99271.66;;;25.27;63.57
76858;BME280;65830;0.000;0.000;2023-06-26T10:27:57;99268.59;;;25.41;64.54
76858;BME280;65830;0.000;0.000;2023-06-26T10:30:29;99270.25;;;25.42;60.54
76858;BME280;65830;0.000;0.000;2023-06-26T10:32:57;99265.56;;;25.54;63.17
76858;BME280;65830;0.000;0.000;2023-06-26T10:35:23;99260.38;;;25.69;63.18
76858;BME280;65830;0.000;0.000;2023-06-26T10:37:50;99261.19;;;25.87;61.11
76858;BME280;65830;0.000;0.000;2023-06-26T10:40:25;99256.28;;;26.01;61.75
76858;BME280;65830;0.000;0.000;2023-06-26T10:42:51;99255.19;;;26.24;62.19
76858;BME280;65830;0.000;0.000;2023-06-26T10:45:30;99248.50;;;26.31;61.87
76858;BME280;65830;0.000;0.000;2023-06-26T10:47:55;99249.41;;;26.37;60.89
76858;BME280;65830;0.000;0.000;2023-06-26T10:50:27;99232.88;;;26.44;59.27
76858;BME280;65830;0.000;0.000;2023-06-26T10:55:48;99237.78;;;26.64;55.32
76858;BME280;65830;0.000;0.000;2023-06-26T10:58:30;99230.69;;;26.63;52.02
76858;BME280;65830;0.000;0.000;2023-06-26T11:03:39;99235.13;;;26.96;54.84
76858;BME280;65830;0.000;0.000;2023-06-26T11:06:09;99232.25;;;27.08;53.87
76858;BME280;65830;0.000;0.000;2023-06-26T11:08:47;99231.34;;;27.24;55.10
76858;BME280;65830;0.000;0.000;2023-06-26T11:11:13;99226.84;;;27.40;52.44
76858;BME280;65830;0.000;0.000;2023-06-26T11:13:39;99217.19;;;27.60;48.18
76858;BME280;65830;0.000;0.000;2023-06-26T11:16:05;99220.84;;;27.76;47.29
76858;BME280;65830;0.000;0.000;2023-06-26T11:18:31;99224.78;;;27.90;45.16
76858;BME280;65830;0.000;0.000;2023-06-26T11:21:04;99226.94;;;27.88;43.47
76858;BME280;65830;0.000;0.000;2023-06-26T11:23:29;99218.97;;;27.81;42.89
76858;BME280;65830;0.000;0.000;2023-06-26T11:25:56;99222.03;;;27.90;47.49
76858;BME280;65830;0.000;0.000;2023-06-26T11:28:22;99217.19;;;27.97;50.88
76858;BME280;65830;0.000;0.000;2023-06-26T11:30:48;99223.75;;;28.01;51.26
76858;BME280;65830;0.000;0.000;2023-06-26T11:33:13;99223.22;;;28.04;51.30
76858;BME280;65830;0.000;0.000;2023-06-26T11:35:39;99226.44;;;27.96;51.46
76858;BME280;65830;0.000;0.000;2023-06-26T11:38:04;99226.34;;;27.86;51.28
76858;BME280;65830;0.000;0.000;2023-06-26T11:40:33;99221.66;;;27.76;52.03
76858;BME280;65830;0.000;0.000;2023-06-26T11:42:59;99228.94;;;27.65;53.44
76858;BME280;65830;0.000;0.000;2023-06-26T11:45:27;99228.03;;;27.54;53.18
76858;BME280;65830;0.000;0.000;2023-06-26T11:47:54;99224.44;;;27.49;54.31
76858;BME280;65830;0.000;0.000;2023-06-26T11:50:20;99221.97;;;27.42;55.62
76858;BME280;65830;0.000;0.000;2023-06-26T11:52:45;99222.75;;;27.38;56.62
76858;BME280;65830;0.000;0.000;2023-06-26T11:55:17;99217.56;;;27.36;55.23
76858;BME280;65830;0.000;0.000;2023-06-26T11:57:47;99219.50;;;27.41;54.22
76858;BME280;65830;0.000;0.000;2023-06-26T12:00:14;99215.88;;;27.67;54.48
76858;BME280;65830;0.000;0.000;2023-06-26T12:02:39;99210.44;;;28.10;52.64
76858;BME280;65830;0.000;0.000;2023-06-26T12:05:05;99211.75;;;28.60;52.20
76858;BME280;65830;0.000;0.000;2023-06-26T12:07:31;99222.44;;;28.87;51.34
76858;BME280;65830;0.000;0.000;2023-06-26T12:09:57;99219.25;;;29.21;50.88
76858;BME280;65830;0.000;0.000;2023-06-26T12:12:23;99218.97;;;29.64;48.00
76858;BME280;65830;0.000;0.000;2023-06-26T12:14:50;99219.72;;;30.00;47.85
76858;BME280;65830;0.000;0.000;2023-06-26T12:17:16;99212.56;;;30.15;45.85
76858;BME280;65830;0.000;0.000;2023-06-26T12:19:45;99225.06;;;30.46;45.29
76858;BME280;65830;0.000;0.000;2023-06-26T12:22:13;99224.09;;;30.77;45.23
76858;BME280;65830;0.000;0.000;2023-06-26T12:24:39;99223.63;;;31.09;44.74
76858;BME280;65830;0.000;0.000;2023-06-26T12:27:08;99226.84;;;31.56;44.50
76858;BME280;65830;0.000;0.000;2023-06-26T12:29:34;99231.66;;;31.69;42.47
76858;BME280;65830;0.000;0.000;2023-06-26T12:32:00;99238.56;;;31.61;42.95
76858;BME280;65830;0.000;0.000;2023-06-26T12:34:30;99243.69;;;31.39;41.64
76858;BME280;65830;0.000;0.000;2023-06-26T12:36:59;99256.06;;;31.36;43.27
76858;BME280;65830;0.000;0.000;2023-06-26T12:39:25;99247.13;;;31.20;42.62
76858;BME280;65830;0.000;0.000;2023-06-26T12:41:57;99254.94;;;30.98;43.83
76858;BME280;65830;0.000;0.000;2023-06-26T12:44:26;99252.28;;;30.82;42.86
76858;BME280;65830;0.000;0.000;2023-06-26T12:47:01;99259.16;;;30.75;43.83
76858;BME280;65830;0.000;0.000;2023-06-26T12:51:58;99264.81;;;30.39;43.93
76858;BME280;65830;0.000;0.000;2023-06-26T12:54:23;99270.28;;;30.23;44.56
76858;BME280;65830;0.000;0.000;2023-06-26T12:56:49;99278.28;;;29.94;45.99
76858;BME280;65830;0.000;0.000;2023-06-26T12:59:14;99269.53;;;29.36;48.60
76858;BME280;65830;0.000;0.000;2023-06-26T13:01:42;99273.28;;;29.09;50.11
76858;BME280;65830;0.000;0.000;2023-06-26T13:04:08;99284.16;;;28.83;50.48
76858;BME280;65830;0.000;0.000;2023-06-26T13:06:35;99287.13;;;28.66;52.08
76858;BME280;65830;0.000;0.000;2023-06-26T13:09:01;99296.53;;;28.43;52.04
76858;BME280;65830;0.000;0.000;2023-06-26T13:11:30;99291.84;;;28.33;51.52
76858;BME280;65830;0.000;0.000;2023-06-26T13:13:55;99303.50;;;28.24;51.95
76858;BME280;65830;0.000;0.000;2023-06-26T13:16:21;99303.84;;;28.32;52.21
76858;BME280;65830;0.000;0.000;2023-06-26T13:18:46;99299.13;;;28.76;52.64
76858;BME280;65830;0.000;0.000;2023-06-26T13:21:12;99308.78;;;28.99;52.58
76858;BME280;65830;0.000;0.000;2023-06-26T13:23:38;99310.13;;;28.91;51.58
76858;BME280;65830;0.000;0.000;2023-06-26T13:26:04;99314.25;;;28.99;52.84